Time;durP1;ratioP1;P1;durP2;ratioP2;P2;SDS_P1;SDS_P2;PMS_P1;PMS_P2;Temp;Humidity;BMP_temperature;BMP_pressure;BME280_temperature;BME280_humidity;BME280_pressure;Samples;Min_cycle;Max_cycle;Signal;HPM_P1;HPM_P2
2021/07/22 00:02:05;;;;;;;18.17;16.87;;;17.40;99.90;;;;;;5092866;28;20482;-72
2021/07/22 00:04:32;;;;;;;18.77;17.30;;;17.30;99.90;;;;;;5093003;28;20465;-72
2021/07/22 00:07:01;;;;;;;20.57;18.77;;;17.30;99.90;;;;;;5092982;28;20559;-72
2021/07/22 00:09:29;;;;;;;18.93;17.57;;;17.30;99.90;;;;;;5092802;28;20453;-72
2021/07/22 00:11:56;;;;;;;19.30;17.73;;;17.30;99.90;;;;;;5092491;28;20446;-73
2021/07/22 00:14:23;;;;;;;20.10;18.33;;;17.30;99.90;;;;;;5092723;28;20473;-73
2021/07/22 00:16:49;;;;;;;21.40;19.60;;;17.20;99.90;;;;;;5093033;28;20457;-73
2021/07/22 00:19:16;;;;;;;21.23;19.47;;;17.10;99.90;;;;;;5092914;28;20521;-74
2021/07/22 00:21:43;;;;;;;20.53;18.50;;;17.00;99.90;;;;;;5092418;28;20486;-73
2021/07/22 00:24:09;;;;;;;19.73;18.33;;;17.00;99.90;;;;;;5092666;28;20450;-71
2021/07/22 00:26:39;;;;;;;20.90;19.17;;;17.00;99.90;;;;;;5092533;28;20537;-71
2021/07/22 00:29:06;;;;;;;21.93;19.83;;;17.00;99.90;;;;;;5092515;28;20472;-72
2021/07/22 00:31:33;;;;;;;21.97;20.03;;;17.00;99.90;;;;;;5092638;28;20815;-71
2021/07/22 00:33:59;;;;;;;21.00;19.50;;;16.90;99.90;;;;;;5092180;28;20446;-71
2021/07/22 00:36:26;;;;;;;20.83;19.13;;;16.80;99.90;;;;;;5092363;28;20824;-72
2021/07/22 00:38:53;;;;;;;21.90;20.00;;;16.80;99.90;;;;;;5092366;28;20450;-71
2021/07/22 00:41:19;;;;;;;20.93;19.50;;;16.70;99.90;;;;;;5092208;28;20505;-72
2021/07/22 00:43:47;;;;;;;21.03;19.17;;;16.70;99.90;;;;;;5092233;28;20481;-71
2021/07/22 00:46:14;;;;;;;20.50;19.00;;;16.70;99.90;;;;;;5091900;28;20458;-72
2021/07/22 00:48:40;;;;;;;21.37;19.87;;;16.70;99.90;;;;;;5091847;28;20485;-72
2021/07/22 00:51:07;;;;;;;21.67;19.97;;;16.60;99.90;;;;;;5091895;28;20468;-72
2021/07/22 00:53:35;;;;;;;21.43;19.70;;;16.50;99.90;;;;;;5091989;28;20934;-73
2021/07/22 00:56:02;;;;;;;21.73;20.13;;;16.50;99.90;;;;;;5091951;28;20945;-72
2021/07/22 00:58:29;;;;;;;21.93;20.17;;;16.50;99.90;;;;;;5091870;28;20823;-72
2021/07/22 01:00:57;;;;;;;21.60;19.70;;;16.40;99.90;;;;;;5091827;28;20482;-72
2021/07/22 01:03:24;;;;;;;22.17;20.40;;;16.40;99.90;;;;;;5091814;28;20499;-73
2021/07/22 01:05:51;;;;;;;21.70;20.00;;;16.40;99.90;;;;;;5091928;28;20531;-72
2021/07/22 01:08:17;;;;;;;21.93;20.33;;;16.40;99.90;;;;;;5091753;28;20443;-72
2021/07/22 01:10:44;;;;;;;21.23;19.60;;;16.40;99.90;;;;;;5091482;28;20438;-72
2021/07/22 01:13:11;;;;;;;21.13;19.63;;;16.40;99.90;;;;;;5091534;28;20993;-73
2021/07/22 01:15:37;;;;;;;21.10;19.37;;;16.40;99.90;;;;;;5091727;28;20817;-72
2021/07/22 01:18:05;;;;;;;22.50;20.37;;;16.40;99.90;;;;;;5091680;28;20450;-73
2021/07/22 01:20:33;;;;;;;21.97;20.20;;;16.30;99.90;;;;;;5091536;28;20508;-72
2021/07/22 01:23:00;;;;;;;21.30;19.73;;;16.40;99.90;;;;;;5091279;28;20497;-73
2021/07/22 01:25:29;;;;;;;21.93;20.23;;;16.40;99.90;;;;;;5091479;28;20491;-73
2021/07/22 01:27:56;;;;;;;22.47;20.77;;;16.30;99.90;;;;;;5091478;28;20862;-72
2021/07/22 01:30:23;;;;;;;23.93;21.73;;;16.20;99.90;;;;;;5091082;28;20512;-72
2021/07/22 01:32:52;;;;;;;24.40;22.30;;;16.20;99.90;;;;;;5091310;28;20450;-72
2021/07/22 01:35:19;;;;;;;23.37;21.53;;;16.20;99.90;;;;;;5091418;28;20499;-72
2021/07/22 01:37:49;;;;;;;22.83;21.10;;;16.10;99.90;;;;;;5091275;28;20499;-72
2021/07/22 01:40:18;;;;;;;24.60;22.50;;;16.20;99.90;;;;;;5091298;28;20488;-71
2021/07/22 01:42:45;;;;;;;24.33;22.20;;;16.10;99.90;;;;;;5090970;28;20438;-71
2021/07/22 01:45:12;;;;;;;23.90;22.00;;;16.00;99.90;;;;;;5091178;28;20446;-71
2021/07/22 01:47:39;;;;;;;25.33;23.27;;;16.00;99.90;;;;;;5090981;28;20489;-72
2021/07/22 01:50:07;;;;;;;23.77;21.70;;;16.00;99.90;;;;;;5090946;28;20937;-72
2021/07/22 01:52:34;;;;;;;23.63;21.63;;;15.90;99.90;;;;;;5091243;28;20442;-72
2021/07/22 01:55:02;;;;;;;25.63;23.43;;;15.90;99.90;;;;;;5090840;28;20496;-72
2021/07/22 01:57:29;;;;;;;24.03;22.23;;;15.90;99.90;;;;;;5090903;28;20450;-72
2021/07/22 02:00:04;;;;;;;25.07;22.87;;;15.80;99.90;;;;;;5090271;28;20507;-73
2021/07/22 02:02:30;;;;;;;25.90;23.47;;;15.90;99.90;;;;;;5090927;28;20485;-72
2021/07/22 02:04:57;;;;;;;24.30;22.33;;;15.90;99.90;;;;;;5090506;28;20450;-72
2021/07/22 02:07:24;;;;;;;24.87;22.60;;;15.90;99.90;;;;;;5090684;28;20446;-72
2021/07/22 02:09:50;;;;;;;22.80;20.80;;;15.90;99.90;;;;;;5090731;28;20450;-72
2021/07/22 02:12:18;;;;;;;23.77;21.57;;;15.70;99.90;;;;;;5090749;28;20960;-73
2021/07/22 02:14:47;;;;;;;25.57;23.07;;;15.80;99.90;;;;;;5090756;28;20458;-72
2021/07/22 02:17:14;;;;;;;23.27;21.37;;;15.70;99.90;;;;;;5090601;28;20472;-72
2021/07/22 02:19:40;;;;;;;23.00;20.70;;;15.70;99.90;;;;;;5090409;28;20446;-71
2021/07/22 02:22:07;;;;;;;23.30;21.17;;;15.70;99.90;;;;;;5090806;28;20486;-72
2021/07/22 02:24:34;;;;;;;24.27;22.37;;;15.60;99.90;;;;;;5090682;28;20457;-71
2021/07/22 02:27:01;;;;;;;24.73;22.83;;;15.60;99.90;;;;;;5090617;28;20450;-72
2021/07/22 02:29:29;;;;;;;22.90;21.27;;;15.60;99.90;;;;;;5090421;28;20457;-72
2021/07/22 02:31:56;;;;;;;22.03;20.03;;;15.60;99.90;;;;;;5090570;28;20808;-72
2021/07/22 02:34:22;;;;;;;23.20;21.50;;;15.70;99.90;;;;;;5090607;28;20446;-73
2021/07/22 02:36:49;;;;;;;24.10;22.27;;;15.60;99.90;;;;;;5090668;28;20855;-72
2021/07/22 02:39:16;;;;;;;25.10;23.00;;;15.50;99.90;;;;;;5090495;28;20855;-72
2021/07/22 02:41:42;;;;;;;28.67;22.57;;;15.50;99.90;;;;;;5090254;28;20493;-72
2021/07/22 02:44:09;;;;;;;24.03;21.67;;;15.60;99.90;;;;;;5090544;28;20449;-72
2021/07/22 02:46:37;;;;;;;23.03;20.83;;;15.60;99.90;;;;;;5090405;28;20446;-72
2021/07/22 02:49:04;;;;;;;25.43;23.23;;;15.40;99.90;;;;;;5090306;28;20482;-72
2021/07/22 02:51:30;;;;;;;26.30;24.13;;;15.40;99.90;;;;;;5090441;28;20446;-72
2021/07/22 02:53:57;;;;;;;24.20;22.47;;;15.40;99.90;;;;;;5090394;28;20446;-71
2021/07/22 02:56:24;;;;;;;23.00;21.30;;;15.40;99.90;;;;;;5090401;28;20457;-71
2021/07/22 02:58:50;;;;;;;23.93;22.17;;;15.40;99.90;;;;;;5090378;28;20443;-71
2021/07/22 03:01:17;;;;;;;25.77;23.67;;;15.40;99.90;;;;;;5090360;28;20485;-71
2021/07/22 03:03:45;;;;;;;24.40;21.80;;;15.40;99.90;;;;;;5090072;28;20454;-72
2021/07/22 03:06:15;;;;;;;25.00;22.80;;;15.30;99.90;;;;;;5090501;28;20468;-73
2021/07/22 03:08:42;;;;;;;24.10;21.77;;;15.20;99.90;;;;;;5090225;28;20481;-73
2021/07/22 03:11:09;;;;;;;25.37;23.37;;;15.20;99.90;;;;;;5093533;28;20503;-73
2021/07/22 03:13:36;;;;;;;25.07;22.50;;;15.20;99.90;;;;;;5094073;28;20899;-73
2021/07/22 03:16:03;;;;;;;25.60;23.30;;;15.20;99.90;;;;;;5093938;28;20460;-73
2021/07/22 03:18:30;;;;;;;23.70;21.73;;;15.20;99.90;;;;;;5093792;28;20938;-73
2021/07/22 03:21:00;;;;;;;24.30;21.93;;;15.20;99.90;;;;;;5093641;28;20933;-73
2021/07/22 03:23:26;;;;;;;24.77;22.60;;;15.10;99.90;;;;;;5093914;28;20456;-73
2021/07/22 03:25:53;;;;;;;25.53;23.27;;;15.20;99.90;;;;;;5093743;28;20485;-72
2021/07/22 03:28:20;;;;;;;25.70;23.73;;;15.30;99.90;;;;;;5093809;28;20446;-72
2021/07/22 03:30:46;;;;;;;25.40;23.33;;;15.20;99.90;;;;;;5093786;28;20445;-72
2021/07/22 03:33:13;;;;;;;24.83;22.83;;;15.30;99.90;;;;;;5093512;28;20446;-72
2021/07/22 03:35:41;;;;;;;24.77;22.77;;;15.20;99.90;;;;;;5093521;28;20446;-72
2021/07/22 03:38:09;;;;;;;24.30;22.37;;;15.30;99.90;;;;;;5093702;28;20485;-72
2021/07/22 03:40:36;;;;;;;26.17;24.07;;;15.30;99.90;;;;;;5093255;28;20466;-72
2021/07/22 03:43:03;;;;;;;24.03;22.27;;;15.30;99.90;;;;;;5093257;28;20486;-72
2021/07/22 03:45:29;;;;;;;24.00;22.17;;;15.30;99.90;;;;;;5093295;28;20461;-71
2021/07/22 03:48:00;;;;;;;23.17;21.43;;;15.40;99.90;;;;;;5093081;28;20989;-77
2021/07/22 03:50:27;;;;;;;24.30;22.30;;;15.40;99.90;;;;;;5093313;28;20866;-83
2021/07/22 03:52:55;;;;;;;23.60;21.50;;;15.50;99.90;;;;;;5093591;28;20442;-83
2021/07/22 03:55:24;;;;;;;24.07;22.00;;;15.40;99.90;;;;;;5093170;28;20533;-82
2021/07/22 03:57:51;;;;;;;24.27;22.03;;;15.50;99.90;;;;;;5093185;28;20450;-82
2021/07/22 04:00:18;;;;;;;23.50;21.70;;;15.60;99.90;;;;;;5093022;28;20507;-83
2021/07/22 04:02:45;;;;;;;25.03;22.93;;;15.60;99.90;;;;;;5092591;28;20608;-82
2021/07/22 04:05:11;;;;;;;25.53;23.13;;;15.80;99.90;;;;;;5092595;28;20458;-78
2021/07/22 04:07:38;;;;;;;24.80;22.70;;;15.80;99.90;;;;;;5092610;28;20468;-80
2021/07/22 04:10:05;;;;;;;26.73;24.37;;;15.80;99.90;;;;;;5095946;27;20526;-84
2021/07/22 04:12:34;;;;;;;24.47;22.47;;;15.90;99.90;;;;;;5101575;28;20465;-83
2021/07/22 04:15:00;;;;;;;26.67;24.40;;;15.90;99.90;;;;;;5093082;28;20457;-83
2021/07/22 04:17:27;;;;;;;25.77;23.67;;;15.90;99.90;;;;;;5092873;28;20811;-83
2021/07/22 04:19:54;;;;;;;26.70;24.13;;;16.00;99.90;;;;;;5093032;28;20461;-85
2021/07/22 04:22:20;;;;;;;25.27;23.17;;;16.00;99.90;;;;;;5092433;28;20523;-84
2021/07/22 04:24:47;;;;;;;28.17;25.73;;;16.10;99.90;;;;;;5092724;28;20507;-82
2021/07/22 04:27:14;;;;;;;27.70;24.77;;;16.10;99.90;;;;;;5092543;28;20941;-85
2021/07/22 04:29:42;;;;;;;27.97;25.33;;;16.10;99.90;;;;;;5092736;28;20503;-81
2021/07/22 04:32:09;;;;;;;36.03;32.63;;;16.10;99.90;;;;;;5092218;28;20454;-81
2021/07/22 04:34:35;;;;;;;32.77;29.67;;;16.20;99.90;;;;;;5092582;28;20458;-81
2021/07/22 04:37:05;;;;;;;28.40;26.03;;;16.30;99.90;;;;;;5092794;28;20469;-86
2021/07/22 04:39:32;;;;;;;24.50;22.57;;;16.30;99.90;;;;;;5092446;28;20469;-79
2021/07/22 04:41:58;;;;;;;24.73;22.63;;;16.30;99.90;;;;;;5092013;28;20527;-80
2021/07/22 04:44:26;;;;;;;26.00;24.00;;;16.40;99.90;;;;;;5092126;28;20934;-79
2021/07/22 04:46:55;;;;;;;25.37;22.53;;;16.60;99.90;;;;;;5092239;28;20545;-85
2021/07/22 04:49:21;;;;;;;27.43;23.07;;;16.80;99.90;;;;;;5092181;28;20482;-82
2021/07/22 04:51:48;;;;;;;24.50;22.20;;;17.10;99.90;;;;;;5092328;28;20533;-83
2021/07/22 04:54:15;;;;;;;23.13;21.17;;;17.40;99.90;;;;;;5092077;28;20450;-83
2021/07/22 04:56:42;;;;;;;23.37;21.50;;;17.80;99.90;;;;;;5092140;28;20446;-83
2021/07/22 04:59:08;;;;;;;22.97;21.07;;;18.00;99.90;;;;;;5092046;28;20942;-83
2021/07/22 05:01:35;;;;;;;23.90;22.00;;;18.30;99.90;;;;;;5091933;28;20457;-82
2021/07/22 05:04:03;;;;;;;23.83;21.93;;;18.30;99.90;;;;;;5092413;28;20494;-82
2021/07/22 05:06:30;;;;;;;25.50;23.40;;;18.20;99.90;;;;;;5092178;28;20886;-83
2021/07/22 05:08:57;;;;;;;25.00;22.40;;;18.10;99.90;;;;;;5092274;28;20834;-83
2021/07/22 05:11:23;;;;;;;25.93;23.90;;;18.20;99.90;;;;;;5092094;28;20450;-83
2021/07/22 05:13:50;;;;;;;24.93;22.77;;;18.20;99.90;;;;;;5091992;28;20465;-83
2021/07/22 05:16:17;;;;;;;23.37;21.43;;;18.60;99.90;;;;;;5094804;28;20469;-82
2021/07/22 05:18:43;;;;;;;24.73;22.43;;;19.10;99.90;;;;;;5094736;28;20446;-82
2021/07/22 05:21:11;;;;;;;25.30;22.07;;;19.60;99.90;;;;;;5094893;28;20454;-81
2021/07/22 05:23:41;;;;;;;24.90;22.70;;;19.90;99.90;;;;;;5092345;28;20478;-78
2021/07/22 05:26:10;;;;;;;23.67;21.87;;;20.10;99.90;;;;;;5091394;28;20579;-78
2021/07/22 05:28:37;;;;;;;24.60;22.70;;;20.30;99.90;;;;;;5091173;28;20885;-76
2021/07/22 05:31:06;;;;;;;25.17;22.67;;;20.30;99.90;;;;;;5091074;28;20450;-78
2021/07/22 05:33:33;;;;;;;25.57;23.37;;;20.00;99.90;;;;;;5090345;28;20538;-77
2021/07/22 05:36:02;;;;;;;23.30;21.60;;;19.90;99.90;;;;;;5091312;28;20480;-76
2021/07/22 05:39:01;;;;;;;27.17;24.60;;;19.70;99.90;;;;;;5091303;28;20478;-77
2021/07/22 05:41:28;;;;;;;27.73;25.63;;;19.70;99.90;;;;;;5091276;28;20446;-78
2021/07/22 05:43:55;;;;;;;24.90;22.90;;;20.20;99.90;;;;;;5091190;28;20485;-78
2021/07/22 05:46:23;;;;;;;25.60;23.23;;;20.70;99.90;;;;;;5091316;28;20680;-77
2021/07/22 05:48:50;;;;;;;26.00;23.73;;;21.00;99.90;;;;;;5090935;28;20478;-76
2021/07/22 05:51:17;;;;;;;25.50;23.50;;;21.00;99.90;;;;;;5091085;28;20450;-77
2021/07/22 05:53:43;;;;;;;24.27;22.13;;;21.00;99.90;;;;;;5090794;28;20446;-78
2021/07/22 05:56:17;;;;;;;25.83;23.50;;;20.90;99.90;;;;;;5091002;28;20450;-77
2021/07/22 05:58:44;;;;;;;25.40;23.13;;;21.10;99.90;;;;;;5091026;28;20528;-77
2021/07/22 06:01:10;;;;;;;25.63;23.63;;;21.20;99.90;;;;;;5090863;28;20443;-78
2021/07/22 06:03:37;;;;;;;24.57;22.87;;;20.90;99.90;;;;;;5090811;28;20482;-78
2021/07/22 06:06:05;;;;;;;23.23;21.17;;;21.30;99.90;;;;;;5090933;28;20446;-78
2021/07/22 06:08:33;;;;;;;25.40;23.37;;;21.70;99.90;;;;;;5090660;28;20454;-79
2021/07/22 06:11:00;;;;;;;24.43;22.47;;;21.90;99.90;;;;;;5090987;28;20450;-78
2021/07/22 06:13:28;;;;;;;26.03;23.57;;;21.70;99.90;;;;;;5091041;28;20474;-80
2021/07/22 06:15:55;;;;;;;25.20;23.20;;;21.70;99.90;;;;;;5091164;28;20442;-79
2021/07/22 06:18:21;;;;;;;22.80;21.30;;;22.10;99.90;;;;;;5090840;28;20462;-80
2021/07/22 06:20:48;;;;;;;24.13;21.97;;;22.60;99.90;;;;;;5090924;28;20462;-79
2021/07/22 06:23:15;;;;;;;25.33;23.17;;;23.00;99.90;;;;;;5090796;28;20485;-80
2021/07/22 06:25:41;;;;;;;23.90;22.30;;;23.40;99.90;;;;;;5090519;28;20480;-80
2021/07/22 06:28:08;;;;;;;25.37;23.17;;;23.30;99.90;;;;;;5090869;28;20503;-79
2021/07/22 06:30:36;;;;;;;24.40;22.53;;;23.80;99.90;;;;;;5090409;28;20442;-80
2021/07/22 06:33:03;;;;;;;23.93;22.03;;;24.00;99.90;;;;;;5090542;28;20536;-79
2021/07/22 06:35:29;;;;;;;26.23;24.37;;;24.40;99.90;;;;;;5090658;28;20442;-79
2021/07/22 06:37:56;;;;;;;27.80;25.50;;;25.00;99.00;;;;;;5090500;28;20457;-77
2021/07/22 06:40:23;;;;;;;24.10;22.13;;;25.10;98.00;;;;;;5090461;28;20842;-83
2021/07/22 06:42:49;;;;;;;26.20;23.80;;;24.80;98.20;;;;;;5090294;28;20482;-78
2021/07/22 06:45:16;;;;;;;23.80;22.10;;;24.50;98.70;;;;;;5092938;28;20457;-87
2021/07/22 06:47:44;;;;;;;22.48;20.77;;;24.50;99.70;;;;;;5093663;28;20444;-76
2021/07/22 06:50:13;;;;;;;25.13;23.13;;;24.70;98.90;;;;;;5094836;28;20200;-82
2021/07/22 06:52:39;;;;;;;25.07;23.20;;;24.70;98.60;;;;;;5094350;28;20537;-76
2021/07/22 06:55:07;;;;;;;24.87;23.00;;;25.00;98.50;;;;;;5094640;28;20453;-77
2021/07/22 06:57:35;;;;;;;23.97;21.87;;;25.70;96.90;;;;;;5093898;28;20511;-77
2021/07/22 07:00:02;;;;;;;24.10;22.50;;;26.20;96.00;;;;;;5094123;28;20449;-76
2021/07/22 07:02:28;;;;;;;25.07;23.17;;;26.30;95.80;;;;;;5105156;27;20503;-77
2021/07/22 07:04:56;;;;;;;23.50;21.90;;;27.10;94.00;;;;;;5112654;28;20944;-76
2021/07/22 07:07:23;;;;;;;25.23;23.27;;;27.20;93.30;;;;;;5114244;28;20441;-77
2021/07/22 07:09:50;;;;;;;23.43;21.27;;;27.30;93.10;;;;;;5114369;28;20448;-74
2021/07/22 07:12:16;;;;;;;23.17;21.30;;;27.40;92.80;;;;;;5114566;28;20790;-77
2021/07/22 07:14:43;;;;;;;21.03;19.63;;;27.70;92.10;;;;;;5114321;28;20480;-77
2021/07/22 07:17:10;;;;;;;20.10;18.70;;;27.90;90.80;;;;;;5114233;28;20449;-78
2021/07/22 07:19:36;;;;;;;20.43;19.23;;;28.00;90.40;;;;;;5114030;28;20456;-77
2021/07/22 07:22:05;;;;;;;20.30;18.70;;;28.80;88.40;;;;;;5114426;28;20453;-79
2021/07/22 07:24:31;;;;;;;20.67;19.40;;;29.40;86.40;;;;;;5114339;28;20444;-78
2021/07/22 07:26:58;;;;;;;23.30;21.73;;;29.70;85.20;;;;;;5114266;28;20525;-78
2021/07/22 07:29:25;;;;;;;22.37;20.77;;;30.30;83.40;;;;;;5114115;28;20449;-78
2021/07/22 07:31:51;;;;;;;23.63;22.07;;;30.70;82.40;;;;;;5114581;28;20809;-78
2021/07/22 07:34:18;;;;;;;23.10;21.43;;;29.90;84.30;;;;;;5114430;28;20506;-76
2021/07/22 07:36:45;;;;;;;25.00;23.13;;;29.80;84.70;;;;;;5114178;28;20467;-78
2021/07/22 07:39:15;;;;;;;23.43;21.90;;;30.40;83.00;;;;;;5114140;28;20452;-78
2021/07/22 07:41:42;;;;;;;25.13;23.40;;;30.20;83.40;;;;;;5114522;28;20791;-78
2021/07/22 07:44:09;;;;;;;24.87;23.13;;;30.70;81.40;;;;;;5114065;28;20530;-77
2021/07/22 07:46:36;;;;;;;23.90;22.20;;;30.90;80.90;;;;;;5114068;28;20845;-78
2021/07/22 07:49:03;;;;;;;23.40;21.77;;;30.70;81.20;;;;;;5113986;28;20473;-77
2021/07/22 07:51:30;;;;;;;21.30;20.00;;;30.70;81.10;;;;;;5114150;28;20453;-78
2021/07/22 07:53:57;;;;;;;24.13;22.33;;;30.80;80.50;;;;;;5113654;28;20448;-78
2021/07/22 07:56:26;;;;;;;21.90;20.30;;;31.10;79.90;;;;;;5112757;28;20446;-77
2021/07/22 07:58:53;;;;;;;23.03;21.37;;;31.20;79.60;;;;;;5114028;28;20441;-77
2021/07/22 08:01:21;;;;;;;22.13;20.67;;;31.20;78.60;;;;;;5113870;28;20464;-77
2021/07/22 08:03:48;;;;;;;23.43;21.50;;;31.30;77.80;;;;;;5113730;28;20568;-79
2021/07/22 08:06:15;;;;;;;21.97;20.53;;;30.90;77.60;;;;;;5110655;28;20462;-76
2021/07/22 08:08:42;;;;;;;22.67;20.80;;;30.70;79.50;;;;;;5095883;27;20458;-72
2021/07/22 08:11:08;;;;;;;22.13;20.47;;;30.90;78.00;;;;;;5111302;28;20449;-72
2021/07/22 08:13:36;;;;;;;22.60;21.00;;;31.40;78.70;;;;;;5112817;28;20473;-72
2021/07/22 08:16:03;;;;;;;25.13;23.23;;;31.80;76.00;;;;;;5112883;28;20446;-73
2021/07/22 08:18:30;;;;;;;21.23;20.03;;;31.70;74.30;;;;;;5112848;28;20811;-73
2021/07/22 08:20:57;;;;;;;22.70;21.30;;;31.20;76.10;;;;;;5112819;28;20499;-73
2021/07/22 08:23:24;;;;;;;20.53;19.33;;;31.60;75.80;;;;;;5112666;28;20537;-72
2021/07/22 08:25:51;;;;;;;22.90;21.33;;;31.80;75.10;;;;;;5112731;28;20526;-71
2021/07/22 08:28:18;;;;;;;21.73;20.53;;;31.70;73.30;;;;;;5112562;28;20969;-72
2021/07/22 08:30:46;;;;;;;21.10;19.80;;;31.80;73.60;;;;;;5112610;28;20940;-72
2021/07/22 08:33:13;;;;;;;22.27;21.03;;;32.10;72.60;;;;;;5112539;28;20441;-72
2021/07/22 08:35:39;;;;;;;20.50;19.07;;;32.10;72.30;;;;;;5112499;28;20449;-73
2021/07/22 08:38:06;;;;;;;21.20;19.80;;;32.40;71.90;;;;;;5112422;28;20460;-72
2021/07/22 08:40:33;;;;;;;19.73;18.77;;;33.20;68.90;;;;;;5112319;28;20452;-73
2021/07/22 08:43:03;;;;;;;20.90;19.70;;;33.50;67.10;;;;;;5112217;28;20598;-73
2021/07/22 08:45:30;;;;;;;21.97;20.17;;;33.60;65.30;;;;;;5112491;28;20445;-72
2021/07/22 08:47:59;;;;;;;20.93;19.73;;;33.90;62.50;;;;;;5112059;28;20483;-72
2021/07/22 08:50:26;;;;;;;20.30;19.20;;;33.80;62.30;;;;;;5112177;28;20867;-73
2021/07/22 08:52:53;;;;;;;21.10;19.80;;;33.00;65.60;;;;;;5112231;28;20456;-72
2021/07/22 08:55:21;;;;;;;20.97;19.57;;;32.90;65.70;;;;;;5112256;28;20449;-72
2021/07/22 08:57:48;;;;;;;19.97;18.77;;;32.80;65.20;;;;;;5111924;28;20457;-73
2021/07/22 09:00:16;;;;;;;20.07;18.97;;;33.00;65.30;;;;;;5112235;28;20506;-72
2021/07/22 09:02:43;;;;;;;20.47;19.27;;;33.70;63.10;;;;;;5111889;28;20445;-73
2021/07/22 09:05:14;;;;;;;19.53;18.60;;;32.90;63.30;;;;;;5111755;28;20461;-73
2021/07/22 09:07:41;;;;;;;21.10;19.90;;;33.30;63.70;;;;;;5111701;28;20449;-73
2021/07/22 09:10:12;;;;;;;20.97;19.73;;;33.90;61.30;;;;;;5111561;28;20442;-72
2021/07/22 09:12:41;;;;;;;22.43;21.03;;;34.10;59.70;;;;;;5111509;28;20464;-74
2021/07/22 09:15:10;;;;;;;21.57;20.17;;;34.80;58.50;;;;;;5111630;28;20441;-74
2021/07/22 09:17:36;;;;;;;20.57;19.57;;;35.20;57.10;;;;;;5111574;28;20457;-74
2021/07/22 09:20:04;;;;;;;20.40;19.30;;;35.30;57.10;;;;;;5111698;28;20449;-74
2021/07/22 09:22:37;;;;;;;21.23;20.20;;;35.00;56.20;;;;;;5111416;28;20445;-74
2021/07/22 09:25:04;;;;;;;19.70;18.60;;;34.30;55.60;;;;;;5111278;28;20485;-73
2021/07/22 09:27:40;;;;;;;20.57;19.50;;;34.40;56.40;;;;;;5111342;28;20503;-75
2021/07/22 09:30:11;;;;;;;20.77;19.67;;;34.00;56.20;;;;;;5111239;28;20452;-74
2021/07/22 09:32:39;;;;;;;20.90;19.90;;;33.50;56.10;;;;;;5111301;28;20460;-75
2021/07/22 09:35:09;;;;;;;20.73;19.60;;;32.80;58.40;;;;;;5111171;28;20457;-74
2021/07/22 09:37:39;;;;;;;20.77;19.67;;;32.60;59.80;;;;;;5111547;28;20484;-74
2021/07/22 09:40:08;;;;;;;21.47;20.07;;;32.50;60.10;;;;;;5111379;28;20453;-78
2021/07/22 09:42:44;;;;;;;20.40;19.30;;;32.20;59.90;;;;;;5105375;27;20518;-74
2021/07/22 09:45:16;;;;;;;20.10;18.90;;;32.30;59.10;;;;;;5091579;28;20481;-77
2021/07/22 09:47:43;;;;;;;19.10;18.10;;;32.50;59.80;;;;;;5090939;28;20478;-73
2021/07/22 09:50:12;;;;;;;21.10;19.80;;;33.10;60.80;;;;;;5089220;28;20495;-75
2021/07/22 09:52:41;;;;;;;22.20;20.83;;;33.30;60.20;;;;;;5090468;28;20490;-73
2021/07/22 09:55:27;;;;;;;20.77;19.73;;;33.60;59.70;;;;;;5091426;28;20450;-75
2021/07/22 09:57:55;;;;;;;20.70;19.60;;;33.20;58.60;;;;;;5091322;28;20461;-74
2021/07/22 10:00:22;;;;;;;18.90;17.90;;;32.60;59.60;;;;;;5091061;28;20503;-74
2021/07/22 10:02:51;;;;;;;20.13;19.13;;;32.90;58.40;;;;;;5090847;28;20453;-74
2021/07/22 10:05:20;;;;;;;22.53;20.57;;;33.00;56.60;;;;;;5090883;28;20576;-75
2021/07/22 10:07:51;;;;;;;20.83;19.63;;;33.00;57.10;;;;;;5090858;28;20457;-75
2021/07/22 10:10:18;;;;;;;20.80;19.70;;;33.90;57.30;;;;;;5101853;28;20449;-73
2021/07/22 10:12:52;;;;;;;20.80;19.53;;;34.30;55.80;;;;;;5111137;28;20992;-74
2021/07/22 10:15:20;;;;;;;21.47;20.47;;;35.20;54.00;;;;;;5111166;28;20441;-75
2021/07/22 10:17:48;;;;;;;20.83;19.83;;;35.60;53.40;;;;;;5111151;28;20488;-75
2021/07/22 10:20:16;;;;;;;21.03;19.87;;;35.40;54.00;;;;;;5113139;28;20452;-76
2021/07/22 10:22:44;;;;;;;21.33;19.93;;;35.70;53.00;;;;;;5115390;28;20531;-72
2021/07/22 10:25:14;;;;;;;21.10;20.10;;;36.30;50.40;;;;;;5115479;28;20558;-72
2021/07/22 10:27:43;;;;;;;20.80;19.47;;;36.60;50.40;;;;;;5115014;28;20959;-72
2021/07/22 10:30:14;;;;;;;22.20;21.00;;;37.10;50.80;;;;;;5115248;28;20925;-72
2021/07/22 10:32:47;;;;;;;22.50;21.20;;;37.50;49.50;;;;;;5115339;28;20445;-73
2021/07/22 10:35:15;;;;;;;21.10;19.60;;;36.80;48.30;;;;;;5115199;28;20445;-72
2021/07/22 10:38:04;;;;;;;20.70;19.60;;;36.20;47.90;;;;;;5115172;28;20441;-73
2021/07/22 10:40:57;;;;;;;20.87;19.87;;;36.10;48.50;;;;;;5115244;28;20490;-74
2021/07/22 10:43:38;;;;;;;21.20;20.10;;;35.30;49.80;;;;;;5111029;28;20457;-72
2021/07/22 10:46:06;;;;;;;21.00;19.80;;;35.80;49.80;;;;;;5114989;28;20448;-73
2021/07/22 10:48:33;;;;;;;21.10;19.97;;;35.70;50.10;;;;;;5114575;28;20484;-74
2021/07/22 10:51:05;;;;;;;20.57;19.67;;;36.70;49.20;;;;;;5115001;28;20449;-73
2021/07/22 10:53:43;;;;;;;20.67;19.57;;;36.10;49.10;;;;;;5114873;28;20441;-73
2021/07/22 10:56:12;;;;;;;20.63;19.63;;;36.30;49.20;;;;;;5114833;28;20444;-73
2021/07/22 10:58:50;;;;;;;21.67;20.40;;;36.50;47.70;;;;;;5114909;28;20856;-72
2021/07/22 11:01:53;;;;;;;21.33;20.20;;;36.50;47.70;;;;;;5114549;28;20449;-73
2021/07/22 11:04:50;;;;;;;21.40;20.30;;;36.30;47.30;;;;;;5114466;28;20561;-72
2021/07/22 11:07:23;;;;;;;21.13;19.93;;;36.70;47.80;;;;;;5114598;28;20965;-73
2021/07/22 11:09:53;;;;;;;20.93;19.83;;;36.00;48.40;;;;;;5114409;28;20444;-72
2021/07/22 11:12:45;;;;;;;20.83;19.73;;;36.60;48.30;;;;;;5114595;28;20928;-72
2021/07/22 11:15:57;;;;;;;22.53;21.43;;;36.60;47.50;;;;;;5114474;28;20441;-72
2021/07/22 11:18:49;;;;;;;21.43;20.40;;;36.80;46.50;;;;;;5114182;28;21018;-73
2021/07/22 11:21:23;;;;;;;22.97;21.80;;;37.50;46.30;;;;;;5114323;28;20445;-72
2021/07/22 11:24:01;;;;;;;23.47;22.17;;;38.00;45.40;;;;;;5114281;28;20491;-73
2021/07/22 11:26:29;;;;;;;23.40;21.67;;;37.80;45.40;;;;;;5114059;28;20944;-73
2021/07/22 11:28:58;;;;;;;23.37;21.93;;;37.80;45.30;;;;;;5114389;28;20850;-74
2021/07/22 11:31:25;;;;;;;22.00;21.00;;;37.90;45.70;;;;;;5113989;28;20556;-72
2021/07/22 11:33:52;;;;;;;23.30;22.03;;;38.10;45.50;;;;;;5114020;28;20442;-73
2021/07/22 11:36:22;;;;;;;22.13;21.10;;;37.60;46.30;;;;;;5113942;28;20452;-73
2021/07/22 11:38:53;;;;;;;21.70;20.50;;;38.20;46.00;;;;;;5113822;28;20453;-72
2021/07/22 11:41:21;;;;;;;23.70;22.20;;;39.20;43.80;;;;;;5114184;28;20490;-73
2021/07/22 11:43:49;;;;;;;23.93;22.57;;;39.30;42.80;;;;;;5113722;28;20485;-73
2021/07/22 11:46:33;;;;;;;24.13;22.83;;;39.30;42.70;;;;;;5113791;28;20453;-73
2021/07/22 11:49:06;;;;;;;23.83;22.63;;;39.10;43.90;;;;;;5113603;28;20485;-73
2021/07/22 11:51:33;;;;;;;22.20;21.07;;;39.00;43.20;;;;;;5113764;28;20532;-74
2021/07/22 11:54:00;;;;;;;23.07;21.57;;;39.20;43.20;;;;;;5114131;28;20548;-72
2021/07/22 11:56:31;;;;;;;22.70;21.60;;;39.10;43.10;;;;;;5113837;28;20457;-73
2021/07/22 11:58:58;;;;;;;23.23;21.80;;;38.80;42.90;;;;;;5114003;28;20863;-74
2021/07/22 12:01:26;;;;;;;23.37;22.13;;;38.50;43.80;;;;;;5113237;28;20449;-74
2021/07/22 12:03:53;;;;;;;24.23;22.67;;;37.30;45.60;;;;;;5113363;28;20492;-74
2021/07/22 12:06:23;;;;;;;23.07;21.80;;;37.40;45.00;;;;;;5113378;28;20464;-74
2021/07/22 12:09:04;;;;;;;22.80;21.70;;;38.90;43.80;;;;;;5113219;28;20536;-73
2021/07/22 12:11:42;;;;;;;22.77;21.47;;;38.20;43.90;;;;;;5092612;28;20461;-73
2021/07/22 12:14:08;;;;;;;23.03;21.83;;;38.00;44.20;;;;;;5092908;28;20489;-73
2021/07/22 12:16:37;;;;;;;23.40;21.80;;;37.70;45.40;;;;;;5092734;28;20446;-73
2021/07/22 12:19:04;;;;;;;23.97;22.20;;;37.90;44.70;;;;;;5092521;28;20454;-74
2021/07/22 12:21:32;;;;;;;21.77;20.60;;;37.10;45.90;;;;;;5092918;28;20450;-73
2021/07/22 12:24:17;;;;;;;24.23;22.40;;;37.00;46.20;;;;;;5092408;28;21056;-74
2021/07/22 12:26:44;;;;;;;24.40;23.03;;;37.40;46.20;;;;;;5092466;28;20457;-74
2021/07/22 12:29:11;;;;;;;23.20;21.80;;;37.30;45.80;;;;;;5092584;28;20446;-73
2021/07/22 12:31:40;;;;;;;23.37;21.93;;;36.10;47.20;;;;;;5092423;28;20454;-73
2021/07/22 12:34:07;;;;;;;25.40;24.00;;;35.70;48.90;;;;;;5092368;28;20446;-73
2021/07/22 12:36:35;;;;;;;22.70;21.30;;;36.10;48.00;;;;;;5092561;28;20450;-73